Neptune Hellas — 9HA3957 — position and weather

sailwx.info

Track history (hours):
 
Tides and Currents Weather Stations Pressure Air Temp Water Temp Dewpoint Dewpoint Depression Visibility Wind Speed Wind Dir Waves Ship Positions

Neptune Hellas

Last reported at 2017-Nov-16 19:20 UTC. Time now 2017-Nov-17 17:44 UTC.
Position N 36°38' E 014°36'.

Length 168 m; draft 8.7 m.

Type: Cargo ship. MMSI: 256575000.

Date/timePositionNaut miles runAvg speedWind from/ knotsBaromVisibWave heightAir tempDewpointWater temp
2017-Nov-16 19:20N 36°38' E 014°36'617.2
2017-Nov-16 19:00N 36°39' E 014°29'917.5
2017-Nov-16 18:30N 36°43' E 014°20'917.2
2017-Nov-16 18:00N 36°46' E 014°10'917.4
2017-Nov-16 17:30N 36°50' E 013°60'917.5
2017-Nov-16 17:00N 36°54' E 013°50'917.5
2017-Nov-16 16:30N 36°57' E 013°40'24916.6
2017-Nov-16 01:30N 38°39' E 008°53'816.4
2017-Nov-16 01:00N 38°42' E 008°43'1716.4
2017-Nov-15 23:57N 38°49' E 008°23'1316.4
2017-Nov-15 23:08N 38°55' E 008°07'309 7.2
2017-Nov-14 04:11N 41°19' E 002°10'23 0.5
2017-Nov-12 03:10N 40°57' E 001°59'615.0
2017-Nov-12 02:46N 40°53' E 001°54'19 0.4
2017-Nov-10 03:47N 41°06' E 001°35'414.8
2017-Nov-10 03:30N 41°07' E 001°40'714.6
2017-Nov-10 03:00N 41°08' E 001°50'714.6
2017-Nov-10 02:30N 41°10' E 001°59'714.8
2017-Nov-10 02:00N 41°12' E 002°09'17515.4
2017-Nov-09 14:38N 43°09' E 005°04'215.9
2017-Nov-09 14:30N 43°11' E 005°06'815.7
2017-Nov-09 14:00N 43°17' E 005°13'612.4
2017-Nov-09 13:30N 43°21' E 005°19'2 3.8
2017-Nov-09 13:00N 43°20' E 005°21'0 0.0
2017-Nov-09 12:30N 43°20' E 005°21'0 0.0
2017-Nov-09 11:51N 43°20' E 005°21'0 0.0
2017-Nov-09 11:30N 43°20' E 005°21'0 0.0
2017-Nov-09 10:51N 43°20' E 005°21'0 0.0
2017-Nov-09 10:21N 43°20' E 005°21'0 0.0
2017-Nov-09 09:51N 43°20' E 005°21'0 0.0
2017-Nov-09 09:21N 43°20' E 005°21'0 0.0
2017-Nov-09 08:54N 43°20' E 005°21'0 0.0
2017-Nov-09 08:21N 43°20' E 005°21'0 0.0
2017-Nov-09 07:54N 43°20' E 005°21'0 0.0
2017-Nov-09 07:27N 43°20' E 005°21'0 0.0
2017-Nov-09 06:57N 43°20' E 005°21'0 0.0
2017-Nov-09 06:21N 43°20' E 005°21'0 0.0
2017-Nov-09 05:55N 43°20' E 005°21'1 1.5
2017-Nov-09 05:30N 43°20' E 005°20'4 8.0
2017-Nov-09 05:00N 43°19' E 005°15'4 8.7
2017-Nov-09 04:30N 43°16' E 005°11'51614.3
2017-Nov-07 16:20N 38°50' E 014°58'914.4
2017-Nov-07 15:43N 38°45' E 015°08'612.7
2017-Nov-07 15:13N 38°42' E 015°14'211.3
2017-Nov-07 15:00N 38°40' E 015°16'712.9
2017-Nov-07 14:29N 38°35' E 015°22'814.4
2017-Nov-07 13:57N 38°29' E 015°29'614.5
2017-Nov-07 13:30N 38°25' E 015°34'714.8
2017-Nov-07 13:00N 38°19' E 015°41'510.9
2017-Nov-07 12:30N 38°14' E 015°37'714.1
2017-Nov-07 12:00N 38°07' E 015°36'612.3
2017-Nov-07 11:30N 38°01' E 015°36'611.8
2017-Nov-07 10:59N 37°55' E 015°39'612.6
2017-Nov-07 10:30N 37°52' E 015°45'714.6
2017-Nov-07 10:00N 37°51' E 015°54'  
Track history (hours):
 
Tides and Currents Weather Stations Pressure Air Temp Water Temp Dewpoint Dewpoint Depression Visibility Wind Speed Wind Dir Waves Ship Positions

Neptune Hellas

Last reported at 2017-Nov-16 19:20 UTC. Time now 2017-Nov-17 17:44 UTC.
Position N 36°38' E 014°36'.

Length 168 m; draft 8.7 m.

Type: Cargo ship. MMSI: 256575000.

Date/timePositionNaut miles runAvg speedWind from/ knotsBaromVisibWave heightAir tempDewpointWater temp
2017-Nov-16 19:20N 36°38' E 014°36'617.2
2017-Nov-16 19:00N 36°39' E 014°29'917.5
2017-Nov-16 18:30N 36°43' E 014°20'917.2
2017-Nov-16 18:00N 36°46' E 014°10'917.4
2017-Nov-16 17:30N 36°50' E 013°60'917.5
2017-Nov-16 17:00N 36°54' E 013°50'917.5
2017-Nov-16 16:30N 36°57' E 013°40'24916.6
2017-Nov-16 01:30N 38°39' E 008°53'816.4
2017-Nov-16 01:00N 38°42' E 008°43'1716.4
2017-Nov-15 23:57N 38°49' E 008°23'1316.4
2017-Nov-15 23:08N 38°55' E 008°07'309 7.2
2017-Nov-14 04:11N 41°19' E 002°10'23 0.5
2017-Nov-12 03:10N 40°57' E 001°59'615.0
2017-Nov-12 02:46N 40°53' E 001°54'19 0.4
2017-Nov-10 03:47N 41°06' E 001°35'414.8
2017-Nov-10 03:30N 41°07' E 001°40'714.6
2017-Nov-10 03:00N 41°08' E 001°50'714.6
2017-Nov-10 02:30N 41°10' E 001°59'714.8
2017-Nov-10 02:00N 41°12' E 002°09'17515.4
2017-Nov-09 14:38N 43°09' E 005°04'215.9
2017-Nov-09 14:30N 43°11' E 005°06'815.7
2017-Nov-09 14:00N 43°17' E 005°13'612.4
2017-Nov-09 13:30N 43°21' E 005°19'2 3.8
2017-Nov-09 13:00N 43°20' E 005°21'0 0.0
2017-Nov-09 12:30N 43°20' E 005°21'0 0.0
2017-Nov-09 11:51N 43°20' E 005°21'0 0.0
2017-Nov-09 11:30N 43°20' E 005°21'0 0.0
2017-Nov-09 10:51N 43°20' E 005°21'0 0.0
2017-Nov-09 10:21N 43°20' E 005°21'0 0.0
2017-Nov-09 09:51N 43°20' E 005°21'0 0.0
2017-Nov-09 09:21N 43°20' E 005°21'0 0.0
2017-Nov-09 08:54N 43°20' E 005°21'0 0.0
2017-Nov-09 08:21N 43°20' E 005°21'0 0.0
2017-Nov-09 07:54N 43°20' E 005°21'0 0.0
2017-Nov-09 07:27N 43°20' E 005°21'0 0.0
2017-Nov-09 06:57N 43°20' E 005°21'0 0.0
2017-Nov-09 06:21N 43°20' E 005°21'0 0.0
2017-Nov-09 05:55N 43°20' E 005°21'1 1.5
2017-Nov-09 05:30N 43°20' E 005°20'4 8.0
2017-Nov-09 05:00N 43°19' E 005°15'4 8.7
2017-Nov-09 04:30N 43°16' E 005°11'51614.3
2017-Nov-07 16:20N 38°50' E 014°58'914.4
2017-Nov-07 15:43N 38°45' E 015°08'612.7
2017-Nov-07 15:13N 38°42' E 015°14'211.3
2017-Nov-07 15:00N 38°40' E 015°16'712.9
2017-Nov-07 14:29N 38°35' E 015°22'814.4
2017-Nov-07 13:57N 38°29' E 015°29'614.5
2017-Nov-07 13:30N 38°25' E 015°34'714.8
2017-Nov-07 13:00N 38°19' E 015°41'510.9
2017-Nov-07 12:30N 38°14' E 015°37'714.1
2017-Nov-07 12:00N 38°07' E 015°36'612.3
2017-Nov-07 11:30N 38°01' E 015°36'611.8
2017-Nov-07 10:59N 37°55' E 015°39'612.6
2017-Nov-07 10:30N 37°52' E 015°45'714.6
2017-Nov-07 10:00N 37°51' E 015°54'  

Dump ship's entire track history